sensor_id;sensor_type;location;lat;lon;timestamp;pressure;altitude;pressure_sealevel;temperature;humidity
55675;BME280;41562;44.330;23.802;2022-08-03T00:02:26;100101.09;;;23.86;58.97
55675;BME280;41562;44.330;23.802;2022-08-03T00:04:59;100108.81;;;23.81;59.63
55675;BME280;41562;44.330;23.802;2022-08-03T00:07:26;100106.56;;;23.86;59.48
55675;BME280;41562;44.330;23.802;2022-08-03T00:09:59;100105.50;;;23.72;60.16
55675;BME280;41562;44.330;23.802;2022-08-03T00:12:33;100111.75;;;23.72;60.42
55675;BME280;41562;44.330;23.802;2022-08-03T00:15:04;100105.50;;;23.72;60.19
55675;BME280;41562;44.330;23.802;2022-08-03T00:17:37;100109.34;;;23.67;60.67
55675;BME280;41562;44.330;23.802;2022-08-03T00:20:22;100111.72;;;23.69;60.65
55675;BME280;41562;44.330;23.802;2022-08-03T00:22:52;100110.63;;;23.73;60.33
55675;BME280;41562;44.330;23.802;2022-08-03T00:25:21;100108.97;;;23.69;60.67
55675;BME280;41562;44.330;23.802;2022-08-03T00:27:50;100118.09;;;23.76;60.44
55675;BME280;41562;44.330;23.802;2022-08-03T00:30:21;100113.28;;;23.70;60.71
55675;BME280;41562;44.330;23.802;2022-08-03T00:32:55;100117.63;;;23.71;60.86
55675;BME280;41562;44.330;23.802;2022-08-03T00:35:28;100116.75;;;23.67;61.14
55675;BME280;41562;44.330;23.802;2022-08-03T00:38:03;100111.72;;;23.69;60.91
55675;BME280;41562;44.330;23.802;2022-08-03T00:40:33;100113.34;;;23.73;60.71
55675;BME280;41562;44.330;23.802;2022-08-03T00:43:07;100112.91;;;23.71;61.24
55675;BME280;41562;44.330;23.802;2022-08-03T00:45:36;100115.00;;;23.78;60.82
55675;BME280;41562;44.330;23.802;2022-08-03T00:48:06;100114.88;;;23.71;61.15
55675;BME280;41562;44.330;23.802;2022-08-03T00:50:56;100112.56;;;23.73;61.19
55675;BME280;41562;44.330;23.802;2022-08-03T00:53:28;100110.00;;;23.60;61.67
55675;BME280;41562;44.330;23.802;2022-08-03T00:56:03;100118.75;;;23.70;61.72
55675;BME280;41562;44.330;23.802;2022-08-03T00:58:31;100122.94;;;23.63;61.95
55675;BME280;41562;44.330;23.802;2022-08-03T01:01:04;100114.88;;;23.71;61.61
55675;BME280;41562;44.330;23.802;2022-08-03T01:03:35;100122.03;;;23.79;61.24
55675;BME280;41562;44.330;23.802;2022-08-03T01:06:06;100128.75;;;23.62;62.02
55675;BME280;41562;44.330;23.802;2022-08-03T01:16:58;100124.84;;;24.05;60.58
55675;BME280;41562;44.330;23.802;2022-08-03T01:19:42;100126.38;;;24.48;59.40
55675;BME280;41562;44.330;23.802;2022-08-03T01:27:28;100118.72;;;24.57;58.74
55675;BME280;41562;44.330;23.802;2022-08-03T01:30:09;100124.31;;;24.68;58.64
55675;BME280;41562;44.330;23.802;2022-08-03T01:32:51;100121.19;;;24.66;58.14
55675;BME280;41562;44.330;23.802;2022-08-03T01:35:49;100116.78;;;24.58;58.30
55675;BME280;41562;44.330;23.802;2022-08-03T01:38:23;100119.38;;;24.51;58.72
55675;BME280;41562;44.330;23.802;2022-08-03T01:40:54;100124.31;;;24.68;58.55
55675;BME280;41562;44.330;23.802;2022-08-03T01:43:27;100116.91;;;24.68;58.38
55675;BME280;41562;44.330;23.802;2022-08-03T01:46:19;100113.63;;;24.85;57.96
55675;BME280;41562;44.330;23.802;2022-08-03T01:48:55;100115.44;;;24.48;58.94
55675;BME280;41562;44.330;23.802;2022-08-03T01:51:28;100114.28;;;24.49;58.95
55675;BME280;41562;44.330;23.802;2022-08-03T01:54:22;100112.00;;;24.28;59.42
55675;BME280;41562;44.330;23.802;2022-08-03T01:56:57;100114.31;;;24.26;59.64
55675;BME280;41562;44.330;23.802;2022-08-03T01:59:25;100112.94;;;24.17;59.66
55675;BME280;41562;44.330;23.802;2022-08-03T02:01:54;100123.59;;;24.22;59.80
55675;BME280;41562;44.330;23.802;2022-08-03T02:04:48;100128.75;;;24.50;59.06
55675;BME280;41562;44.330;23.802;2022-08-03T02:07:22;100124.50;;;24.29;59.58
55675;BME280;41562;44.330;23.802;2022-08-03T02:09:53;100125.56;;;24.48;58.68
55675;BME280;41562;44.330;23.802;2022-08-03T02:12:24;100130.59;;;24.68;58.37
55675;BME280;41562;44.330;23.802;2022-08-03T02:14:55;100127.38;;;24.63;58.54
55675;BME280;41562;44.330;23.802;2022-08-03T02:17:28;100124.59;;;24.59;58.60
55675;BME280;41562;44.330;23.802;2022-08-03T02:20:07;100129.81;;;24.68;58.25
55675;BME280;41562;44.330;23.802;2022-08-03T02:22:41;100127.50;;;24.70;58.00
55675;BME280;41562;44.330;23.802;2022-08-03T02:25:12;100126.59;;;24.17;59.48
55675;BME280;41562;44.330;23.802;2022-08-03T02:28:00;100127.78;;;24.38;59.12
55675;BME280;41562;44.330;23.802;2022-08-03T02:30:33;100132.63;;;24.49;59.06
55675;BME280;41562;44.330;23.802;2022-08-03T02:33:01;100129.25;;;24.32;59.34
55675;BME280;41562;44.330;23.802;2022-08-03T02:35:32;100130.84;;;24.33;59.35
55675;BME280;41562;44.330;23.802;2022-08-03T02:38:04;100133.91;;;24.55;58.74
55675;BME280;41562;44.330;23.802;2022-08-03T02:40:33;100138.09;;;24.49;58.81
55675;BME280;41562;44.330;23.802;2022-08-03T02:43:11;100133.41;;;24.49;58.83
55675;BME280;41562;44.330;23.802;2022-08-03T02:45:50;100130.16;;;24.40;58.94
55675;BME280;41562;44.330;23.802;2022-08-03T02:48:22;100134.44;;;24.18;59.95
55675;BME280;41562;44.330;23.802;2022-08-03T02:50:59;100133.97;;;24.35;59.33
55675;BME280;41562;44.330;23.802;2022-08-03T02:53:29;100136.72;;;24.35;59.20
55675;BME280;41562;44.330;23.802;2022-08-03T02:56:03;100137.16;;;24.64;58.20
55675;BME280;41562;44.330;23.802;2022-08-03T02:58:31;100139.25;;;24.48;58.62
55675;BME280;41562;44.330;23.802;2022-08-03T03:01:02;100144.16;;;24.61;58.41
55675;BME280;41562;44.330;23.802;2022-08-03T03:03:30;100146.66;;;24.01;60.41
55675;BME280;41562;44.330;23.802;2022-08-03T03:06:14;100146.06;;;24.34;59.15
55675;BME280;41562;44.330;23.802;2022-08-03T03:08:48;100155.50;;;24.18;59.73
55675;BME280;41562;44.330;23.802;2022-08-03T03:11:22;100153.88;;;24.13;59.81
55675;BME280;41562;44.330;23.802;2022-08-03T03:13:51;100155.34;;;24.07;59.99
55675;BME280;41562;44.330;23.802;2022-08-03T03:16:22;100163.75;;;23.98;60.26
55675;BME280;41562;44.330;23.802;2022-08-03T03:18:52;100161.69;;;23.92;60.46
55675;BME280;41562;44.330;23.802;2022-08-03T03:21:24;100163.19;;;24.09;60.20
55675;BME280;41562;44.330;23.802;2022-08-03T03:23:56;100171.41;;;24.31;59.22
55675;BME280;41562;44.330;23.802;2022-08-03T03:26:30;100173.03;;;24.36;59.00
55675;BME280;41562;44.330;23.802;2022-08-03T03:29:01;100175.19;;;24.04;60.03
55675;BME280;41562;44.330;23.802;2022-08-03T03:31:35;100170.13;;;24.25;59.57
55675;BME280;41562;44.330;23.802;2022-08-03T03:34:06;100174.19;;;24.35;59.04
55675;BME280;41562;44.330;23.802;2022-08-03T03:36:36;100181.00;;;24.44;58.85
55675;BME280;41562;44.330;23.802;2022-08-03T03:39:06;100180.00;;;24.56;58.67
55675;BME280;41562;44.330;23.802;2022-08-03T03:41:44;100185.84;;;24.55;58.49
55675;BME280;41562;44.330;23.802;2022-08-03T03:44:12;100183.72;;;24.22;59.55
55675;BME280;41562;44.330;23.802;2022-08-03T03:46:42;100190.59;;;24.16;59.56
55675;BME280;41562;44.330;23.802;2022-08-03T03:49:10;100182.34;;;24.31;59.11
55675;BME280;41562;44.330;23.802;2022-08-03T03:51:38;100191.19;;;24.48;59.01
55675;BME280;41562;44.330;23.802;2022-08-03T03:54:09;100193.28;;;24.31;59.19
55675;BME280;41562;44.330;23.802;2022-08-03T03:56:37;100197.91;;;24.27;59.21
55675;BME280;41562;44.330;23.802;2022-08-03T03:59:08;100202.84;;;24.22;59.50
55675;BME280;41562;44.330;23.802;2022-08-03T04:01:37;100197.75;;;24.20;59.60
55675;BME280;41562;44.330;23.802;2022-08-03T04:04:08;100196.25;;;24.03;60.02
55675;BME280;41562;44.330;23.802;2022-08-03T04:06:36;100194.63;;;23.80;60.95
55675;BME280;41562;44.330;23.802;2022-08-03T04:09:10;100199.75;;;24.04;60.10
55675;BME280;41562;44.330;23.802;2022-08-03T04:11:51;100200.66;;;23.89;60.44
55675;BME280;41562;44.330;23.802;2022-08-03T04:14:27;100200.38;;;23.94;61.11
55675;BME280;41562;44.330;23.802;2022-08-03T04:17:01;100206.13;;;23.89;61.20
55675;BME280;41562;44.330;23.802;2022-08-03T04:19:51;100197.31;;;24.41;60.44
55675;BME280;41562;44.330;23.802;2022-08-03T04:22:23;100202.69;;;24.57;59.62
55675;BME280;41562;44.330;23.802;2022-08-03T04:24:55;100211.00;;;24.64;58.95
55675;BME280;41562;44.330;23.802;2022-08-03T04:27:33;100214.78;;;24.56;59.04
55675;BME280;41562;44.330;23.802;2022-08-03T04:30:06;100207.00;;;24.58;59.10
55675;BME280;41562;44.330;23.802;2022-08-03T04:32:34;100223.16;;;24.43;59.75
55675;BME280;41562;44.330;23.802;2022-08-03T04:35:14;100221.88;;;24.37;60.53
55675;BME280;41562;44.330;23.802;2022-08-03T04:37:42;100228.81;;;24.54;60.45
55675;BME280;41562;44.330;23.802;2022-08-03T04:40:18;100232.03;;;24.60;61.80
55675;BME280;41562;44.330;23.802;2022-08-03T04:42:48;100243.63;;;24.99;59.47
55675;BME280;41562;44.330;23.802;2022-08-03T04:45:19;100240.63;;;25.07;59.07
55675;BME280;41562;44.330;23.802;2022-08-03T04:47:50;100238.44;;;24.90;59.83
55675;BME280;41562;44.330;23.802;2022-08-03T04:50:22;100240.09;;;24.98;58.45
55675;BME280;41562;44.330;23.802;2022-08-03T04:52:56;100250.31;;;25.01;58.46
55675;BME280;41562;44.330;23.802;2022-08-03T04:55:30;100254.44;;;24.92;58.45
55675;BME280;41562;44.330;23.802;2022-08-03T04:58:02;100249.94;;;24.80;58.77
55675;BME280;41562;44.330;23.802;2022-08-03T05:00:34;100251.84;;;24.76;58.93
55675;BME280;41562;44.330;23.802;2022-08-03T05:03:05;100248.13;;;24.88;58.75
55675;BME280;41562;44.330;23.802;2022-08-03T05:05:56;100252.22;;;24.97;58.75
55675;BME280;41562;44.330;23.802;2022-08-03T05:08:31;100256.03;;;24.93;58.70
55675;BME280;41562;44.330;23.802;2022-08-03T05:11:07;100258.44;;;25.20;57.84
55675;BME280;41562;44.330;23.802;2022-08-03T05:13:42;100253.00;;;24.98;58.13
55675;BME280;41562;44.330;23.802;2022-08-03T05:16:12;100259.00;;;24.84;58.93
55675;BME280;41562;44.330;23.802;2022-08-03T05:18:44;100268.31;;;25.02;58.42
55675;BME280;41562;44.330;23.802;2022-08-03T05:21:19;100273.78;;;25.02;58.44
55675;BME280;41562;44.330;23.802;2022-08-03T05:24:13;100266.94;;;24.89;58.70
55675;BME280;41562;44.330;23.802;2022-08-03T05:26:46;100275.94;;;24.90;58.99
55675;BME280;41562;44.330;23.802;2022-08-03T05:29:13;100273.47;;;25.07;58.38
55675;BME280;41562;44.330;23.802;2022-08-03T05:31:47;100271.69;;;25.18;57.86
55675;BME280;41562;44.330;23.802;2022-08-03T05:34:18;100281.13;;;25.21;57.79
55675;BME280;41562;44.330;23.802;2022-08-03T05:36:48;100272.59;;;25.26;57.83
55675;BME280;41562;44.330;23.802;2022-08-03T05:39:21;100279.19;;;25.21;57.48
55675;BME280;41562;44.330;23.802;2022-08-03T05:41:52;100280.31;;;25.20;58.00
55675;BME280;41562;44.330;23.802;2022-08-03T05:44:24;100286.22;;;25.22;58.11
55675;BME280;41562;44.330;23.802;2022-08-03T05:46:53;100288.97;;;25.22;56.83
55675;BME280;41562;44.330;23.802;2022-08-03T05:49:24;100293.19;;;25.16;57.44
55675;BME280;41562;44.330;23.802;2022-08-03T05:51:58;100287.06;;;25.27;57.36
55675;BME280;41562;44.330;23.802;2022-08-03T05:54:44;100291.38;;;25.28;57.03
55675;BME280;41562;44.330;23.802;2022-08-03T05:57:26;100294.84;;;25.24;56.94
55675;BME280;41562;44.330;23.802;2022-08-03T05:59:56;100302.28;;;25.50;56.53
55675;BME280;41562;44.330;23.802;2022-08-03T06:02:30;100299.25;;;25.29;56.31
55675;BME280;41562;44.330;23.802;2022-08-03T06:05:00;100303.59;;;25.34;56.47
55675;BME280;41562;44.330;23.802;2022-08-03T06:07:35;100306.97;;;25.50;56.19
55675;BME280;41562;44.330;23.802;2022-08-03T06:10:13;100294.53;;;25.82;55.08
55675;BME280;41562;44.330;23.802;2022-08-03T06:13:13;100303.94;;;26.15;54.51
55675;BME280;41562;44.330;23.802;2022-08-03T06:15:45;100299.97;;;26.12;54.11
55675;BME280;41562;44.330;23.802;2022-08-03T06:18:15;100302.25;;;26.07;53.58
55675;BME280;41562;44.330;23.802;2022-08-03T06:20:45;100301.56;;;26.13;53.05
55675;BME280;41562;44.330;23.802;2022-08-03T06:23:18;100293.22;;;26.36;52.79
55675;BME280;41562;44.330;23.802;2022-08-03T06:25:46;100299.53;;;26.40;53.01
55675;BME280;41562;44.330;23.802;2022-08-03T06:28:19;100294.81;;;26.77;52.15
55675;BME280;41562;44.330;23.802;2022-08-03T06:31:12;100299.19;;;26.86;50.46
55675;BME280;41562;44.330;23.802;2022-08-03T06:33:50;100291.78;;;26.90;49.17
55675;BME280;41562;44.330;23.802;2022-08-03T06:36:40;100301.81;;;27.19;50.36
55675;BME280;41562;44.330;23.802;2022-08-03T06:39:11;100308.03;;;27.09;48.58
55675;BME280;41562;44.330;23.802;2022-08-03T06:41:38;100305.41;;;27.23;47.92
55675;BME280;41562;44.330;23.802;2022-08-03T06:44:17;100305.03;;;27.28;48.33
55675;BME280;41562;44.330;23.802;2022-08-03T06:46:46;100297.56;;;27.25;48.34
55675;BME280;41562;44.330;23.802;2022-08-03T06:49:17;100300.44;;;27.46;47.68
55675;BME280;41562;44.330;23.802;2022-08-03T06:51:48;100297.69;;;27.43;47.34
55675;BME280;41562;44.330;23.802;2022-08-03T06:54:35;100300.97;;;27.63;47.26
55675;BME280;41562;44.330;23.802;2022-08-03T06:57:02;100302.97;;;27.76;47.01
55675;BME280;41562;44.330;23.802;2022-08-03T06:59:33;100302.03;;;28.20;45.54
55675;BME280;41562;44.330;23.802;2022-08-03T07:02:24;100300.72;;;27.96;46.20
55675;BME280;41562;44.330;23.802;2022-08-03T07:04:56;100307.03;;;28.00;45.38
55675;BME280;41562;44.330;23.802;2022-08-03T07:07:24;100305.31;;;27.71;45.00
55675;BME280;41562;44.330;23.802;2022-08-03T07:09:55;100308.25;;;28.10;45.03
55675;BME280;41562;44.330;23.802;2022-08-03T07:12:27;100302.38;;;28.11;45.08
55675;BME280;41562;44.330;23.802;2022-08-03T07:15:01;100306.06;;;28.72;45.07
55675;BME280;41562;44.330;23.802;2022-08-03T07:17:30;100310.38;;;28.55;43.31
55675;BME280;41562;44.330;23.802;2022-08-03T07:20:02;100308.81;;;28.58;43.49
55675;BME280;41562;44.330;23.802;2022-08-03T07:22:33;100300.16;;;28.56;43.34
55675;BME280;41562;44.330;23.802;2022-08-03T07:25:04;100302.09;;;28.59;43.40
55675;BME280;41562;44.330;23.802;2022-08-03T07:27:34;100304.09;;;28.62;43.07
55675;BME280;41562;44.330;23.802;2022-08-03T07:30:04;100298.22;;;29.02;43.67
55675;BME280;41562;44.330;23.802;2022-08-03T07:32:38;100301.38;;;29.18;42.20
55675;BME280;41562;44.330;23.802;2022-08-03T07:35:19;100302.53;;;29.35;42.79
55675;BME280;41562;44.330;23.802;2022-08-03T07:37:51;100296.63;;;28.73;42.92
55675;BME280;41562;44.330;23.802;2022-08-03T07:40:24;100301.00;;;28.88;42.77
55675;BME280;41562;44.330;23.802;2022-08-03T07:42:58;100295.06;;;29.22;42.43
55675;BME280;41562;44.330;23.802;2022-08-03T07:45:29;100296.22;;;29.56;42.60
55675;BME280;41562;44.330;23.802;2022-08-03T07:48:05;100295.38;;;29.70;42.20
55675;BME280;41562;44.330;23.802;2022-08-03T07:50:38;100288.34;;;29.58;41.24
55675;BME280;41562;44.330;23.802;2022-08-03T07:53:06;100287.00;;;30.02;42.22
55675;BME280;41562;44.330;23.802;2022-08-03T07:55:33;100292.97;;;29.93;41.45
55675;BME280;41562;44.330;23.802;2022-08-03T08:00:31;100296.72;;;30.31;41.45
55675;BME280;41562;44.330;23.802;2022-08-03T08:03:01;100299.06;;;30.32;41.91
55675;BME280;41562;44.330;23.802;2022-08-03T08:05:36;100288.59;;;30.03;40.34
55675;BME280;41562;44.330;23.802;2022-08-03T08:08:06;100295.19;;;30.19;42.42
55675;BME280;41562;44.330;23.802;2022-08-03T08:10:34;100295.94;;;30.23;40.83
55675;BME280;41562;44.330;23.802;2022-08-03T08:13:08;100296.41;;;30.11;40.74
55675;BME280;41562;44.330;23.802;2022-08-03T08:15:35;100298.47;;;29.96;40.30
55675;BME280;41562;44.330;23.802;2022-08-03T08:18:15;100300.75;;;30.16;40.45
55675;BME280;41562;44.330;23.802;2022-08-03T08:20:45;100287.19;;;30.39;41.07
55675;BME280;41562;44.330;23.802;2022-08-03T08:23:17;100288.69;;;30.58;39.79
55675;BME280;41562;44.330;23.802;2022-08-03T08:26:07;100279.06;;;30.76;40.85
55675;BME280;41562;44.330;23.802;2022-08-03T08:28:37;100288.44;;;30.90;40.16
55675;BME280;41562;44.330;23.802;2022-08-03T08:31:07;100291.84;;;30.60;39.99
55675;BME280;41562;44.330;23.802;2022-08-03T08:33:35;100279.47;;;30.75;39.85
55675;BME280;41562;44.330;23.802;2022-08-03T08:36:31;100273.78;;;30.96;39.24
55675;BME280;41562;44.330;23.802;2022-08-03T08:38:58;100275.59;;;31.17;39.90
55675;BME280;41562;44.330;23.802;2022-08-03T08:41:31;100279.56;;;31.16;38.22
55675;BME280;41562;44.330;23.802;2022-08-03T08:44:02;100278.13;;;30.97;38.10
55675;BME280;41562;44.330;23.802;2022-08-03T08:46:32;100277.97;;;31.15;38.08
55675;BME280;41562;44.330;23.802;2022-08-03T08:49:02;100277.19;;;31.14;37.54
55675;BME280;41562;44.330;23.802;2022-08-03T08:51:37;100282.41;;;31.05;38.52
55675;BME280;41562;44.330;23.802;2022-08-03T08:54:26;100276.50;;;31.00;38.79
55675;BME280;41562;44.330;23.802;2022-08-03T08:56:56;100269.63;;;31.22;38.42
55675;BME280;41562;44.330;23.802;2022-08-03T08:59:53;100271.16;;;31.27;38.16
55675;BME280;41562;44.330;23.802;2022-08-03T09:02:23;100276.34;;;31.17;37.66
55675;BME280;41562;44.330;23.802;2022-08-03T09:04:55;100282.00;;;31.07;37.55
55675;BME280;41562;44.330;23.802;2022-08-03T09:07:23;100273.44;;;30.87;37.66
55675;BME280;41562;44.330;23.802;2022-08-03T09:09:50;100270.53;;;30.60;38.44
55675;BME280;41562;44.330;23.802;2022-08-03T09:12:41;100260.69;;;31.04;38.70
55675;BME280;41562;44.330;23.802;2022-08-03T09:15:21;100259.75;;;31.21;37.83
55675;BME280;41562;44.330;23.802;2022-08-03T09:17:49;100259.75;;;31.21;37.45
55675;BME280;41562;44.330;23.802;2022-08-03T09:20:18;100259.28;;;31.30;37.09
55675;BME280;41562;44.330;23.802;2022-08-03T09:22:56;100252.59;;;31.27;37.86
55675;BME280;41562;44.330;23.802;2022-08-03T09:25:28;100259.00;;;31.54;36.92
55675;BME280;41562;44.330;23.802;2022-08-03T09:28:17;100256.53;;;31.26;36.43
55675;BME280;41562;44.330;23.802;2022-08-03T09:31:11;100246.41;;;31.16;37.67
55675;BME280;41562;44.330;23.802;2022-08-03T09:33:46;100242.88;;;31.12;36.17
55675;BME280;41562;44.330;23.802;2022-08-03T09:39:23;100238.66;;;31.38;37.10
55675;BME280;41562;44.330;23.802;2022-08-03T09:42:11;100242.25;;;31.35;36.12
55675;BME280;41562;44.330;23.802;2022-08-03T09:44:42;100244.41;;;31.50;35.81
55675;BME280;41562;44.330;23.802;2022-08-03T09:47:13;100244.47;;;31.47;34.77
55675;BME280;41562;44.330;23.802;2022-08-03T09:49:41;100235.31;;;31.53;35.49
55675;BME280;41562;44.330;23.802;2022-08-03T09:55:00;100229.03;;;31.49;34.03
55675;BME280;41562;44.330;23.802;2022-08-03T09:57:27;100231.78;;;31.15;35.41
55675;BME280;41562;44.330;23.802;2022-08-03T10:00:04;100229.63;;;31.30;34.66
55675;BME280;41562;44.330;23.802;2022-08-03T10:02:40;100228.78;;;31.37;34.51
55675;BME280;41562;44.330;23.802;2022-08-03T10:05:11;100222.63;;;31.56;35.36
55675;BME280;41562;44.330;23.802;2022-08-03T10:07:48;100219.91;;;31.52;33.87
55675;BME280;41562;44.330;23.802;2022-08-03T10:10:16;100220.50;;;31.71;35.85
55675;BME280;41562;44.330;23.802;2022-08-03T10:13:01;100220.25;;;31.88;34.31
55675;BME280;41562;44.330;23.802;2022-08-03T10:15:31;100216.16;;;32.00;34.80
55675;BME280;41562;44.330;23.802;2022-08-03T10:18:28;100216.69;;;31.58;35.08
55675;BME280;41562;44.330;23.802;2022-08-03T10:21:02;100215.06;;;30.89;35.73
55675;BME280;41562;44.330;23.802;2022-08-03T10:23:33;100201.03;;;30.69;36.32
55675;BME280;41562;44.330;23.802;2022-08-03T10:26:02;100211.19;;;30.27;37.10
55675;BME280;41562;44.330;23.802;2022-08-03T10:28:36;100209.13;;;30.38;38.10
55675;BME280;41562;44.330;23.802;2022-08-03T10:31:12;100202.66;;;30.66;37.48
55675;BME280;41562;44.330;23.802;2022-08-03T10:33:45;100204.56;;;30.69;37.40
55675;BME280;41562;44.330;23.802;2022-08-03T10:36:22;100204.78;;;30.41;36.80
55675;BME280;41562;44.330;23.802;2022-08-03T10:38:51;100199.41;;;30.20;37.24
55675;BME280;41562;44.330;23.802;2022-08-03T10:41:19;100197.63;;;29.88;37.04
55675;BME280;41562;44.330;23.802;2022-08-03T10:46:18;100198.81;;;29.87;38.21
55675;BME280;41562;44.330;23.802;2022-08-03T10:48:50;100194.50;;;29.79;37.12
55675;BME280;41562;44.330;23.802;2022-08-03T10:51:24;100201.69;;;29.63;36.65
55675;BME280;41562;44.330;23.802;2022-08-03T10:53:51;100195.31;;;29.73;36.43
55675;BME280;41562;44.330;23.802;2022-08-03T10:56:55;100195.31;;;29.73;37.78
55675;BME280;41562;44.330;23.802;2022-08-03T11:02:03;100185.03;;;29.84;37.49
55675;BME280;41562;44.330;23.802;2022-08-03T11:04:33;100177.97;;;29.79;37.75
55675;BME280;41562;44.330;23.802;2022-08-03T11:09:44;100178.59;;;30.12;36.27
55675;BME280;41562;44.330;23.802;2022-08-03T11:12:21;100171.22;;;30.53;35.45
55675;BME280;41562;44.330;23.802;2022-08-03T11:15:06;100172.28;;;31.07;33.92
55675;BME280;41562;44.330;23.802;2022-08-03T11:17:38;100173.47;;;31.40;32.79
55675;BME280;41562;44.330;23.802;2022-08-03T11:23:08;100165.94;;;31.10;34.81
55675;BME280;41562;44.330;23.802;2022-08-03T11:28:25;100146.38;;;30.91;33.43
55675;BME280;41562;44.330;23.802;2022-08-03T11:31:42;100148.56;;;31.10;32.92
55675;BME280;41562;44.330;23.802;2022-08-03T11:34:10;100144.75;;;31.31;33.98
55675;BME280;41562;44.330;23.802;2022-08-03T11:45:05;100135.00;;;31.53;32.59
55675;BME280;41562;44.330;23.802;2022-08-03T11:47:35;100129.16;;;31.47;33.77
55675;BME280;41562;44.330;23.802;2022-08-03T11:50:19;100133.38;;;31.55;33.62
55675;BME280;41562;44.330;23.802;2022-08-03T11:52:53;100125.84;;;31.60;33.35
55675;BME280;41562;44.330;23.802;2022-08-03T11:55:24;100122.25;;;31.63;33.08
55675;BME280;41562;44.330;23.802;2022-08-03T11:57:59;100124.41;;;31.48;33.42
55675;BME280;41562;44.330;23.802;2022-08-03T12:00:47;100119.69;;;31.45;32.70
55675;BME280;41562;44.330;23.802;2022-08-03T12:03:15;100112.56;;;31.47;33.35
55675;BME280;41562;44.330;23.802;2022-08-03T12:05:50;100114.22;;;31.41;31.87
55675;BME280;41562;44.330;23.802;2022-08-03T12:08:31;100109.56;;;31.35;32.67
55675;BME280;41562;44.330;23.802;2022-08-03T12:10:59;100105.66;;;31.32;32.27
55675;BME280;41562;44.330;23.802;2022-08-03T12:13:41;100106.38;;;31.36;31.64
55675;BME280;41562;44.330;23.802;2022-08-03T12:16:28;100101.13;;;31.15;31.45
55675;BME280;41562;44.330;23.802;2022-08-03T12:18:57;100096.25;;;31.26;30.88
55675;BME280;41562;44.330;23.802;2022-08-03T12:21:26;100100.19;;;31.59;31.88
55675;BME280;41562;44.330;23.802;2022-08-03T12:23:57;100087.97;;;31.83;30.50
55675;BME280;41562;44.330;23.802;2022-08-03T12:26:25;100085.59;;;31.82;31.60
55675;BME280;41562;44.330;23.802;2022-08-03T12:28:53;100079.94;;;31.92;31.26
55675;BME280;41562;44.330;23.802;2022-08-03T12:31:20;100073.34;;;31.83;30.30
55675;BME280;41562;44.330;23.802;2022-08-03T12:36:21;100081.97;;;31.62;30.42
55675;BME280;41562;44.330;23.802;2022-08-03T12:38:55;100082.22;;;31.71;28.54
55675;BME280;41562;44.330;23.802;2022-08-03T12:41:30;100079.03;;;31.15;29.00
55675;BME280;41562;44.330;23.802;2022-08-03T12:43:57;100089.84;;;31.33;29.16
55675;BME280;41562;44.330;23.802;2022-08-03T12:46:28;100078.09;;;31.25;29.17
55675;BME280;41562;44.330;23.802;2022-08-03T12:48:57;100077.03;;;31.46;29.17
55675;BME280;41562;44.330;23.802;2022-08-03T12:51:25;100078.97;;;31.19;29.27
55675;BME280;41562;44.330;23.802;2022-08-03T12:53:53;100071.16;;;31.13;30.03
55675;BME280;41562;44.330;23.802;2022-08-03T12:56:23;100068.88;;;31.05;30.09
55675;BME280;41562;44.330;23.802;2022-08-03T12:58:51;100071.53;;;31.15;29.58
55675;BME280;41562;44.330;23.802;2022-08-03T13:01:18;100068.91;;;31.35;28.69
55675;BME280;41562;44.330;23.802;2022-08-03T13:03:49;100067.47;;;31.50;29.52
55675;BME280;41562;44.330;23.802;2022-08-03T13:06:20;100059.97;;;31.51;29.09
55675;BME280;41562;44.330;23.802;2022-08-03T13:08:48;100061.78;;;31.65;28.46
55675;BME280;41562;44.330;23.802;2022-08-03T13:11:19;100057.38;;;31.40;27.93
55675;BME280;41562;44.330;23.802;2022-08-03T13:13:47;100051.69;;;31.51;28.06
55675;BME280;41562;44.330;23.802;2022-08-03T13:16:14;100064.91;;;31.67;28.83
55675;BME280;41562;44.330;23.802;2022-08-03T13:18:45;100052.28;;;31.66;28.53
55675;BME280;41562;44.330;23.802;2022-08-03T13:21:17;100058.06;;;31.48;28.46
55675;BME280;41562;44.330;23.802;2022-08-03T13:23:45;100054.31;;;31.31;29.01
55675;BME280;41562;44.330;23.802;2022-08-03T13:26:12;100044.69;;;31.16;29.28
55675;BME280;41562;44.330;23.802;2022-08-03T13:28:39;100057.06;;;31.04;28.87
55675;BME280;41562;44.330;23.802;2022-08-03T13:31:07;100046.91;;;30.94;28.93
55675;BME280;41562;44.330;23.802;2022-08-03T13:33:34;100044.28;;;30.84;28.82
55675;BME280;41562;44.330;23.802;2022-08-03T13:36:01;100051.81;;;30.80;29.89
55675;BME280;41562;44.330;23.802;2022-08-03T13:38:28;100049.09;;;30.76;28.99
55675;BME280;41562;44.330;23.802;2022-08-03T13:40:56;100044.84;;;30.68;30.15
55675;BME280;41562;44.330;23.802;2022-08-03T13:43:24;100044.84;;;30.68;29.81
55675;BME280;41562;44.330;23.802;2022-08-03T13:45:51;100044.88;;;30.64;30.09
55675;BME280;41562;44.330;23.802;2022-08-03T13:48:24;100043.31;;;30.63;28.91
55675;BME280;41562;44.330;23.802;2022-08-03T13:51:04;100036.69;;;30.57;29.63
55675;BME280;41562;44.330;23.802;2022-08-03T13:53:49;100036.75;;;30.50;29.64
55675;BME280;41562;44.330;23.802;2022-08-03T13:56:17;100034.44;;;30.42;29.02
55675;BME280;41562;44.330;23.802;2022-08-03T13:58:44;100035.59;;;30.44;28.43
55675;BME280;41562;44.330;23.802;2022-08-03T14:01:11;100026.91;;;30.49;28.01